Time;durP1;ratioP1;P1;durP2;ratioP2;P2;SDS_P1;SDS_P2;PMS_P1;PMS_P2;Temp;Humidity;BMP_temperature;BMP_pressure;BME280_temperature;BME280_humidity;BME280_pressure;Samples;Min_cycle;Max_cycle;Signal;HPM_P1;HPM_P2
2024/01/04 00:00:36;;;;;;;0.20;0.20;;;7.30;99.90;;;;;;5024997;28;20254;-91
2024/01/04 00:03:02;;;;;;;0.20;0.20;;;7.20;99.90;;;;;;5026236;28;20645;-93
2024/01/04 00:05:27;;;;;;;0.20;0.20;;;7.20;99.90;;;;;;5026833;28;20229;-93
2024/01/04 00:07:53;;;;;;;0.20;0.20;;;7.20;99.90;;;;;;5034632;28;20249;-93
2024/01/04 00:10:19;;;;;;;0.20;0.20;;;7.20;99.90;;;;;;5025161;28;20214;-92
2024/01/04 00:12:45;;;;;;;0.20;0.20;;;7.20;99.90;;;;;;5041154;28;20265;-92
2024/01/04 00:15:11;;;;;;;0.20;0.20;;;7.10;99.90;;;;;;5025377;28;20341;-93
2024/01/04 00:17:37;;;;;;;0.10;0.10;;;7.10;99.90;;;;;;5026528;28;20285;-92
2024/01/04 00:20:03;;;;;;;0.30;0.30;;;7.20;99.90;;;;;;5025519;28;20272;-93
2024/01/04 00:22:29;;;;;;;0.20;0.20;;;7.20;99.90;;;;;;5016231;28;20233;-92
2024/01/04 00:24:54;;;;;;;0.20;0.20;;;7.10;99.90;;;;;;5024984;28;20222;-92
2024/01/04 00:27:20;;;;;;;0.20;0.20;;;7.10;99.90;;;;;;5015963;28;20586;-92
2024/01/04 00:29:46;;;;;;;0.20;0.20;;;7.00;99.90;;;;;;5017254;28;20654;-91
2024/01/04 00:32:12;;;;;;;0.20;0.20;;;7.10;99.90;;;;;;5032742;28;20694;-92
2024/01/04 00:34:38;;;;;;;0.20;0.20;;;7.10;99.90;;;;;;5024929;28;20694;-92
2024/01/04 00:37:04;;;;;;;0.20;0.20;;;7.00;99.90;;;;;;5026011;28;20233;-92
2024/01/04 00:39:31;;;;;;;0.20;0.20;;;7.00;99.90;;;;;;5040194;28;20224;-93
2024/01/04 00:41:58;;;;;;;0.20;0.20;;;6.90;99.90;;;;;;5015921;28;20202;-91
2024/01/04 00:44:24;;;;;;;0.27;0.27;;;6.90;99.90;;;;;;5017472;28;20214;-91
2024/01/04 00:46:50;;;;;;;0.17;0.17;;;6.90;99.90;;;;;;5015837;28;20966;-90
2024/01/04 00:49:16;;;;;;;0.20;0.20;;;6.90;99.90;;;;;;5000647;28;20225;-92
2024/01/04 00:51:42;;;;;;;0.10;0.10;;;6.90;99.90;;;;;;5030792;28;20227;-93
2024/01/04 00:54:08;;;;;;;0.20;0.20;;;6.90;99.90;;;;;;4999241;28;21044;-91
2024/01/04 00:56:34;;;;;;;0.13;0.13;;;6.90;99.90;;;;;;5008703;28;20194;-91
2024/01/04 00:59:01;;;;;;;0.20;0.20;;;6.90;99.90;;;;;;5031522;28;20690;-90
2024/01/04 01:01:27;;;;;;;0.20;0.20;;;6.90;99.90;;;;;;5040695;28;20227;-92
2024/01/04 01:03:53;;;;;;;0.20;0.20;;;6.90;99.90;;;;;;5040722;28;21003;-91
2024/01/04 01:06:18;;;;;;;0.10;0.10;;;6.90;99.90;;;;;;5040433;28;20238;-93
2024/01/04 01:08:44;;;;;;;0.20;0.20;;;6.90;99.90;;;;;;5032011;28;20244;-92
2024/01/04 01:11:10;;;;;;;0.20;0.20;;;6.90;99.90;;;;;;5024309;28;20301;-92
2024/01/04 01:13:36;;;;;;;0.10;0.10;;;6.90;99.90;;;;;;5040838;28;20225;-91
2024/01/04 01:16:02;;;;;;;0.20;0.20;;;6.90;99.90;;;;;;4999780;28;20292;-91
2024/01/04 01:18:28;;;;;;;0.20;0.20;;;6.80;99.90;;;;;;5024016;28;20229;-92
2024/01/04 01:20:57;;;;;;;0.30;0.30;;;6.90;99.90;;;;;;5040012;28;20973;-92
2024/01/04 01:23:23;;;;;;;0.20;0.20;;;6.80;99.90;;;;;;5041319;28;20218;-92
2024/01/04 01:25:49;;;;;;;0.20;0.20;;;6.80;99.90;;;;;;5037852;28;20227;-91
2024/01/04 01:28:15;;;;;;;0.20;0.20;;;6.70;99.90;;;;;;5031856;28;20333;-92
2024/01/04 01:30:41;;;;;;;0.20;0.20;;;6.60;99.90;;;;;;5039814;28;20287;-92
2024/01/04 01:33:06;;;;;;;0.20;0.20;;;6.60;99.90;;;;;;5022073;28;20191;-91
2024/01/04 01:35:32;;;;;;;0.20;0.20;;;6.70;99.90;;;;;;5000312;28;20206;-91
2024/01/04 01:37:58;;;;;;;0.20;0.20;;;6.60;99.90;;;;;;5028537;28;20223;-92
2024/01/04 01:40:24;;;;;;;0.20;0.20;;;6.70;99.90;;;;;;4998754;28;20241;-89
2024/01/04 01:42:50;;;;;;;0.30;0.30;;;6.70;99.90;;;;;;4999286;28;20245;-92
2024/01/04 01:45:16;;;;;;;0.20;0.20;;;6.70;99.90;;;;;;5023342;28;20553;-92
2024/01/04 01:47:47;;;;;;;0.20;0.20;;;6.70;99.90;;;;;;5040860;28;20297;-92
2024/01/04 01:50:17;;;;;;;0.23;0.23;;;6.50;99.90;;;;;;5040078;28;20325;-93
2024/01/04 01:52:44;;;;;;;0.20;0.20;;;6.30;99.90;;;;;;5037874;28;20808;-92
2024/01/04 01:55:14;;;;;;;0.20;0.20;;;6.30;99.90;;;;;;5024908;28;20222;-92
2024/01/04 01:57:41;;;;;;;0.10;0.10;;;6.20;99.90;;;;;;5038944;28;20225;-91
2024/01/04 02:00:09;;;;;;;0.83;0.83;;;6.20;99.90;;;;;;5029131;28;20912;-91
2024/01/04 02:02:35;;;;;;;0.20;0.20;;;6.20;99.90;;;;;;5023799;28;20191;-91
2024/01/04 02:05:02;;;;;;;0.10;0.10;;;6.30;99.90;;;;;;5006494;28;20272;-92
2024/01/04 02:07:28;;;;;;;0.20;0.20;;;6.40;99.90;;;;;;5039453;28;20697;-91
2024/01/04 02:09:54;;;;;;;0.23;0.23;;;6.50;99.90;;;;;;5015163;28;20226;-91
2024/01/04 02:12:20;;;;;;;0.20;0.20;;;6.30;99.90;;;;;;5023552;28;20226;-90
2024/01/04 02:14:45;;;;;;;0.20;0.20;;;6.10;99.90;;;;;;4999999;28;20229;-91
2024/01/04 02:17:11;;;;;;;0.30;0.30;;;6.20;99.90;;;;;;5006364;28;20260;-89
2024/01/04 02:19:39;;;;;;;0.20;0.20;;;6.20;99.90;;;;;;5036262;28;20226;-90
2024/01/04 02:22:04;;;;;;;0.20;0.20;;;6.40;99.90;;;;;;5004639;28;20306;-89
2024/01/04 02:24:30;;;;;;;0.20;0.20;;;6.20;99.90;;;;;;5022886;28;20440;-88
2024/01/04 02:26:56;;;;;;;0.13;0.13;;;6.30;99.90;;;;;;4999381;28;20281;-89
2024/01/04 02:29:22;;;;;;;0.20;0.20;;;6.30;99.90;;;;;;4999304;28;20988;-89
2024/01/04 02:31:50;;;;;;;0.30;0.30;;;6.30;99.90;;;;;;5019176;28;20219;-90
2024/01/04 02:34:16;;;;;;;0.10;0.10;;;6.30;99.90;;;;;;5034320;28;20679;-89
2024/01/04 02:36:42;;;;;;;0.20;0.20;;;6.30;99.90;;;;;;5010322;28;20229;-90
2024/01/04 02:39:09;;;;;;;0.20;0.20;;;6.20;99.90;;;;;;5018237;28;20198;-90
2024/01/04 02:41:35;;;;;;;0.40;0.40;;;6.30;99.90;;;;;;5027212;28;20193;-90
2024/01/04 02:44:02;;;;;;;0.20;0.20;;;6.20;99.90;;;;;;5042301;28;21037;-90
2024/01/04 02:46:28;;;;;;;0.30;0.30;;;6.20;99.90;;;;;;5026346;28;20243;-91
2024/01/04 02:48:54;;;;;;;0.20;0.20;;;6.20;99.90;;;;;;5015955;28;20230;-91
2024/01/04 02:51:21;;;;;;;0.20;0.20;;;6.10;99.90;;;;;;5015746;28;20332;-91
2024/01/04 02:53:47;;;;;;;0.20;0.20;;;6.00;99.90;;;;;;5009231;28;20190;-90
2024/01/04 02:56:12;;;;;;;0.20;0.20;;;6.00;99.90;;;;;;5002069;28;20225;-91
2024/01/04 02:58:38;;;;;;;0.20;0.20;;;5.90;99.90;;;;;;5001863;28;20385;-91
2024/01/04 03:01:04;;;;;;;0.17;0.17;;;5.80;99.90;;;;;;5032569;28;20221;-90
2024/01/04 03:03:30;;;;;;;0.10;0.10;;;5.90;99.90;;;;;;5027312;28;20275;-90
2024/01/04 03:05:56;;;;;;;0.20;0.20;;;6.00;99.90;;;;;;5015699;28;20214;-90
2024/01/04 03:08:22;;;;;;;1.23;1.23;;;6.10;99.90;;;;;;5034978;28;20190;-91
2024/01/04 03:10:48;;;;;;;0.20;0.20;;;6.30;99.90;;;;;;5015410;28;20223;-92
2024/01/04 03:13:13;;;;;;;0.37;0.37;;;6.10;99.90;;;;;;5018487;28;20227;-92
2024/01/04 03:15:39;;;;;;;0.20;0.20;;;6.20;99.90;;;;;;5033023;28;20229;-91
2024/01/04 03:18:05;;;;;;;0.30;0.30;;;6.00;99.90;;;;;;5023989;28;20662;-91
2024/01/04 03:20:30;;;;;;;0.20;0.20;;;5.90;99.90;;;;;;5033234;28;20185;-92
2024/01/04 03:22:56;;;;;;;0.20;0.20;;;5.90;99.90;;;;;;5016021;28;20280;-91
2024/01/04 03:25:22;;;;;;;0.10;0.10;;;5.90;99.90;;;;;;5031126;28;20243;-92
2024/01/04 03:27:48;;;;;;;0.20;0.20;;;5.90;99.90;;;;;;5016230;28;20678;-91
2024/01/04 03:30:14;;;;;;;0.20;0.20;;;5.90;99.90;;;;;;5039971;28;20594;-91
2024/01/04 03:32:39;;;;;;;0.20;0.20;;;6.20;99.90;;;;;;5024413;28;20182;-91
2024/01/04 03:35:06;;;;;;;0.20;0.20;;;6.10;99.90;;;;;;5031278;28;21105;-92
2024/01/04 03:37:31;;;;;;;0.20;0.20;;;6.00;99.90;;;;;;5017935;28;20238;-92
2024/01/04 03:39:57;;;;;;;0.20;0.20;;;6.00;99.90;;;;;;4999239;28;20219;-91
2024/01/04 03:42:23;;;;;;;0.10;0.10;;;6.00;99.90;;;;;;5004627;28;20230;-89
2024/01/04 03:44:49;;;;;;;0.20;0.20;;;6.10;99.90;;;;;;5004285;28;20286;-92
2024/01/04 03:47:14;;;;;;;0.10;0.10;;;5.90;99.90;;;;;;5010769;28;20195;-91
2024/01/04 03:49:40;;;;;;;0.20;0.20;;;5.80;99.90;;;;;;4979590;28;20401;-90
2024/01/04 03:52:06;;;;;;;0.30;0.30;;;5.60;99.90;;;;;;4988793;28;20234;-91
2024/01/04 03:54:32;;;;;;;0.20;0.20;;;5.50;99.90;;;;;;4989159;28;20318;-91
2024/01/04 03:56:58;;;;;;;0.20;0.20;;;5.60;99.90;;;;;;5013961;28;20191;-92
2024/01/04 03:59:24;;;;;;;0.43;0.43;;;5.50;99.90;;;;;;5020810;28;20195;-93
2024/01/04 04:01:49;;;;;;;0.20;0.20;;;5.70;99.90;;;;;;5037280;28;20218;-92
2024/01/04 04:04:15;;;;;;;0.20;0.20;;;5.70;99.90;;;;;;5014219;28;20654;-92
2024/01/04 04:06:41;;;;;;;0.20;0.20;;;5.60;99.90;;;;;;5025788;28;20226;-92
2024/01/04 04:09:07;;;;;;;0.17;0.17;;;5.70;99.90;;;;;;5041491;28;20597;-92
2024/01/04 04:11:34;;;;;;;0.20;0.20;;;5.80;99.90;;;;;;5025807;28;20194;-92
2024/01/04 04:14:00;;;;;;;0.30;0.30;;;5.80;99.90;;;;;;5031554;28;20217;-93
2024/01/04 04:16:26;;;;;;;0.20;0.20;;;5.80;99.90;;;;;;5015343;28;20544;-91
2024/01/04 04:18:52;;;;;;;0.20;0.20;;;5.80;99.90;;;;;;5032447;28;21144;-91
2024/01/04 04:21:23;;;;;;;0.20;0.20;;;6.00;99.90;;;;;;5032318;28;20253;-92
2024/01/04 04:23:49;;;;;;;0.40;0.40;;;5.90;99.90;;;;;;5024931;28;20174;-90
2024/01/04 04:26:22;;;;;;;0.20;0.20;;;6.00;99.90;;;;;;5024751;28;20670;-90
2024/01/04 04:28:49;;;;;;;0.20;0.20;;;5.90;99.90;;;;;;5057182;28;20222;-91
2024/01/04 04:31:15;;;;;;;0.30;0.30;;;6.10;99.90;;;;;;5025710;28;20217;-91
2024/01/04 04:33:43;;;;;;;0.20;0.20;;;5.90;99.90;;;;;;5038334;28;20503;-91
2024/01/04 04:36:10;;;;;;;0.20;0.20;;;6.00;99.90;;;;;;5024129;28;20646;-91
2024/01/04 04:38:36;;;;;;;0.20;0.20;;;5.90;99.90;;;;;;5039566;28;20187;-91
2024/01/04 04:41:06;;;;;;;0.23;0.23;;;5.80;99.90;;;;;;5036451;28;20930;-93
2024/01/04 04:43:32;;;;;;;0.10;0.10;;;5.80;99.90;;;;;;5020313;28;20222;-92
2024/01/04 04:45:58;;;;;;;0.30;0.30;;;5.80;99.90;;;;;;5019357;28;20268;-92
2024/01/04 04:48:25;;;;;;;0.20;0.20;;;5.70;99.90;;;;;;5020622;28;20250;-93
2024/01/04 04:50:52;;;;;;;0.20;0.20;;;5.60;99.90;;;;;;5019760;28;20183;-92
2024/01/04 04:53:18;;;;;;;0.20;0.20;;;5.70;99.90;;;;;;5020136;28;20183;-92
2024/01/04 04:55:44;;;;;;;0.30;0.30;;;5.70;99.90;;;;;;5027569;28;20283;-92
2024/01/04 04:58:10;;;;;;;0.50;0.50;;;5.80;99.90;;;;;;5053644;28;20468;-93
2024/01/04 05:00:36;;;;;;;0.20;0.20;;;5.80;99.90;;;;;;5019165;28;20619;-93
2024/01/04 05:03:02;;;;;;;0.20;0.20;;;5.70;99.90;;;;;;5019134;28;20287;-93
2024/01/04 05:05:28;;;;;;;0.20;0.20;;;5.80;99.90;;;;;;5054293;28;20249;-93
2024/01/04 05:07:55;;;;;;;0.20;0.20;;;5.60;99.90;;;;;;5028529;28;20226;-93
2024/01/04 05:10:21;;;;;;;0.10;0.10;;;5.60;99.90;;;;;;5013837;28;20695;-93
2024/01/04 05:12:48;;;;;;;0.30;0.30;;;5.50;99.90;;;;;;5014818;28;20279;-92
2024/01/04 05:15:14;;;;;;;0.20;0.20;;;5.50;99.90;;;;;;5022901;28;20234;-92
2024/01/04 05:17:39;;;;;;;3.50;0.50;;;5.40;99.90;;;;;;5033386;28;20505;-93
2024/01/04 05:20:06;;;;;;;0.87;0.87;;;5.50;99.90;;;;;;5014321;28;20237;-92
2024/01/04 05:22:32;;;;;;;0.20;0.20;;;5.40;99.90;;;;;;5057492;28;20218;-91
2024/01/04 05:24:58;;;;;;;4.90;0.67;;;5.30;99.90;;;;;;5022929;28;21064;-93
2024/01/04 05:27:23;;;;;;;0.40;0.40;;;5.40;99.90;;;;;;5024602;28;20237;-92
2024/01/04 05:29:49;;;;;;;0.10;0.10;;;5.50;99.90;;;;;;5024001;28;20183;-93
2024/01/04 05:32:15;;;;;;;0.30;0.30;;;5.40;99.90;;;;;;5024016;28;20191;-93
2024/01/04 05:34:44;;;;;;;0.20;0.20;;;5.40;99.90;;;;;;5023693;28;20221;-93
2024/01/04 05:37:10;;;;;;;0.43;0.43;;;5.40;99.90;;;;;;5056712;28;20301;-93
2024/01/04 05:39:36;;;;;;;0.20;0.20;;;5.50;99.90;;;;;;5053553;28;20297;-93
2024/01/04 05:42:01;;;;;;;0.20;0.20;;;5.30;99.90;;;;;;5008164;28;20670;-93
2024/01/04 05:44:27;;;;;;;0.57;0.40;;;5.40;99.90;;;;;;5019761;28;20195;-93
2024/01/04 05:46:53;;;;;;;0.20;0.20;;;5.40;99.90;;;;;;5019014;28;20751;-92
2024/01/04 05:49:19;;;;;;;0.40;0.40;;;5.40;99.90;;;;;;5018723;28;20785;-93
2024/01/04 05:51:45;;;;;;;0.20;0.20;;;5.40;99.90;;;;;;5042466;28;20297;-93
2024/01/04 05:54:10;;;;;;;0.50;0.50;;;5.40;99.90;;;;;;5018503;28;20269;-93
2024/01/04 05:56:37;;;;;;;0.20;0.20;;;5.40;99.90;;;;;;5020763;28;20918;-93
2024/01/04 05:59:02;;;;;;;0.20;0.20;;;5.40;99.90;;;;;;5009355;28;20215;-93
2024/01/04 06:01:28;;;;;;;0.30;0.30;;;5.40;99.90;;;;;;5011522;28;20225;-93
2024/01/04 06:03:54;;;;;;;0.10;0.10;;;5.40;99.90;;;;;;5040716;28;20234;-93
2024/01/04 06:06:20;;;;;;;0.20;0.20;;;5.40;99.90;;;;;;5019430;28;20238;-92
2024/01/04 06:08:46;;;;;;;0.30;0.30;;;5.40;99.90;;;;;;5032705;28;20669;-92
2024/01/04 06:11:12;;;;;;;0.20;0.20;;;5.40;99.90;;;;;;5026853;28;20593;-91
2024/01/04 06:13:38;;;;;;;0.30;0.30;;;5.40;99.90;;;;;;5026660;28;20222;-92
2024/01/04 06:16:07;;;;;;;4.03;0.40;;;5.40;99.90;;;;;;5052014;28;20222;-93
2024/01/04 06:18:36;;;;;;;0.33;0.33;;;5.40;99.90;;;;;;5058892;28;20222;-92
2024/01/04 06:21:03;;;;;;;0.20;0.20;;;5.40;99.90;;;;;;5026812;28;20194;-92
2024/01/04 06:23:29;;;;;;;0.20;0.20;;;5.40;99.90;;;;;;5028756;28;20190;-93
2024/01/04 06:25:55;;;;;;;0.30;0.30;;;5.50;99.90;;;;;;5026407;28;20687;-92
2024/01/04 06:28:22;;;;;;;0.20;0.20;;;5.50;99.90;;;;;;5026921;28;20690;-91
2024/01/04 06:30:48;;;;;;;0.77;0.40;;;5.50;99.90;;;;;;5042435;28;20221;-92
2024/01/04 06:33:14;;;;;;;1.00;0.97;;;5.50;99.90;;;;;;5058581;28;21544;-92
2024/01/04 06:35:40;;;;;;;0.30;0.30;;;5.50;99.90;;;;;;5018994;28;20651;-91
2024/01/04 06:38:08;;;;;;;0.23;0.23;;;5.50;99.90;;;;;;5034154;28;20249;-92
2024/01/04 06:40:38;;;;;;;0.47;0.47;;;5.50;99.90;;;;;;5026767;28;20761;-92
2024/01/04 06:43:08;;;;;;;0.20;0.20;;;5.50;99.90;;;;;;5057587;28;20218;-92
2024/01/04 06:45:37;;;;;;;0.30;0.30;;;5.50;99.90;;;;;;5025850;28;20238;-92
2024/01/04 06:48:04;;;;;;;27.50;1.43;;;5.50;99.90;;;;;;5026037;28;20191;-90
2024/01/04 06:50:30;;;;;;;0.20;0.20;;;5.30;99.90;;;;;;5020492;28;20197;-91
2024/01/04 06:52:57;;;;;;;0.20;0.20;;;5.40;99.90;;;;;;5043630;28;20301;-92
2024/01/04 06:55:23;;;;;;;0.20;0.20;;;5.40;99.90;;;;;;5026979;28;20787;-92
2024/01/04 06:57:49;;;;;;;0.40;0.40;;;5.40;99.90;;;;;;5027189;28;20226;-91
2024/01/04 07:00:18;;;;;;;0.20;0.20;;;5.30;99.90;;;;;;5031909;28;20226;-92
2024/01/04 07:02:43;;;;;;;0.40;0.40;;;5.40;99.90;;;;;;5008476;28;20659;-92
2024/01/04 07:05:11;;;;;;;1.03;0.70;;;5.40;99.90;;;;;;5058412;28;20242;-90
2024/01/04 07:07:38;;;;;;;0.27;0.27;;;5.30;99.90;;;;;;5043087;28;20219;-91
2024/01/04 07:10:04;;;;;;;0.30;0.30;;;5.40;99.90;;;;;;5026799;28;20213;-91
2024/01/04 07:12:30;;;;;;;0.30;0.30;;;5.30;99.90;;;;;;5040254;28;20276;-89
2024/01/04 07:14:55;;;;;;;2.13;1.93;;;5.30;99.90;;;;;;5024311;28;20187;-90
2024/01/04 07:17:22;;;;;;;0.50;0.50;;;5.30;99.90;;;;;;5025369;28;20598;-91
2024/01/04 07:19:48;;;;;;;0.40;0.40;;;5.30;99.90;;;;;;5024695;28;20226;-92
2024/01/04 07:22:18;;;;;;;0.50;0.50;;;5.20;99.90;;;;;;5030791;28;21058;-93
2024/01/04 07:24:44;;;;;;;0.30;0.30;;;5.20;99.90;;;;;;5024970;28;20240;-94
2024/01/04 07:27:12;;;;;;;0.30;0.30;;;5.00;99.90;;;;;;5041700;28;20231;-92
2024/01/04 07:29:38;;;;;;;0.20;0.20;;;5.00;99.90;;;;;;5025308;28;20187;-91
2024/01/04 07:32:05;;;;;;;0.47;0.40;;;4.90;99.90;;;;;;5031807;28;20305;-91
2024/01/04 07:34:38;;;;;;;0.30;0.30;;;5.00;99.90;;;;;;5031909;28;20256;-91
2024/01/04 07:37:05;;;;;;;0.30;0.30;;;5.00;99.90;;;;;;5056486;28;20223;-92
2024/01/04 07:39:30;;;;;;;0.30;0.30;;;4.90;99.90;;;;;;5023548;28;20245;-92
2024/01/04 07:41:56;;;;;;;0.20;0.20;;;4.70;99.90;;;;;;5027631;28;20412;-91
2024/01/04 07:44:22;;;;;;;0.30;0.30;;;4.90;99.90;;;;;;5030896;28;20206;-91
2024/01/04 07:46:48;;;;;;;0.20;0.20;;;4.70;99.90;;;;;;5014510;28;20317;-91
2024/01/04 07:49:14;;;;;;;0.30;0.30;;;4.90;99.90;;;;;;5037421;28;20226;-92
2024/01/04 07:51:41;;;;;;;0.20;0.20;;;4.80;99.90;;;;;;5022504;28;20225;-92
2024/01/04 07:54:07;;;;;;;0.50;0.50;;;4.80;99.90;;;;;;5016078;28;20241;-93
2024/01/04 07:56:33;;;;;;;0.27;0.27;;;4.70;99.90;;;;;;5025050;28;20199;-92
2024/01/04 07:58:58;;;;;;;3.03;1.17;;;4.70;99.90;;;;;;5023798;28;20252;-90
2024/01/04 08:01:24;;;;;;;0.27;0.27;;;4.80;99.90;;;;;;5023152;28;21101;-90
2024/01/04 08:03:50;;;;;;;0.40;0.40;;;4.80;99.90;;;;;;5015376;28;20214;-92
2024/01/04 08:06:16;;;;;;;0.20;0.20;;;4.70;99.90;;;;;;5023242;28;20591;-91
2024/01/04 08:08:42;;;;;;;0.30;0.30;;;4.70;99.90;;;;;;5008471;28;20191;-93
2024/01/04 08:11:08;;;;;;;0.30;0.30;;;4.70;99.90;;;;;;5023752;28;20819;-94
2024/01/04 08:13:35;;;;;;;0.30;0.30;;;4.70;99.90;;;;;;5023641;28;20955;-90
2024/01/04 08:16:01;;;;;;;0.40;0.40;;;4.70;99.90;;;;;;5039972;28;20210;-89
2024/01/04 08:18:27;;;;;;;0.20;0.20;;;4.80;99.90;;;;;;5023232;28;20799;-89
2024/01/04 08:20:53;;;;;;;0.20;0.20;;;4.80;99.90;;;;;;5040321;28;20197;-90
2024/01/04 08:23:20;;;;;;;0.40;0.40;;;4.80;99.90;;;;;;5024786;28;20182;-91
2024/01/04 08:25:46;;;;;;;0.20;0.20;;;4.80;99.90;;;;;;5023659;28;20230;-94
2024/01/04 08:28:12;;;;;;;0.20;0.20;;;4.90;99.90;;;;;;5015529;28;20225;-94
2024/01/04 08:30:38;;;;;;;0.50;0.50;;;4.90;99.90;;;;;;5037642;28;20218;-92
2024/01/04 08:33:04;;;;;;;0.23;0.23;;;4.90;99.90;;;;;;5023701;28;20475;-94
2024/01/04 08:35:30;;;;;;;0.47;0.47;;;5.00;99.90;;;;;;5023400;28;20205;-92
2024/01/04 08:37:56;;;;;;;0.33;0.33;;;4.90;99.90;;;;;;5056460;28;20218;-93
2024/01/04 08:40:22;;;;;;;0.47;0.40;;;4.90;99.90;;;;;;5013248;28;20225;-93
2024/01/04 08:42:48;;;;;;;0.30;0.30;;;5.00;99.90;;;;;;5040538;28;20566;-93
2024/01/04 08:45:14;;;;;;;0.20;0.20;;;5.00;99.90;;;;;;5056450;28;20730;-92
2024/01/04 08:47:40;;;;;;;2.57;0.70;;;5.00;99.90;;;;;;5040409;28;20215;-93
2024/01/04 08:50:11;;;;;;;0.20;0.20;;;5.10;99.90;;;;;;5040040;28;20215;-93
2024/01/04 08:52:37;;;;;;;0.40;0.40;;;5.30;99.90;;;;;;5032196;28;20230;-92
2024/01/04 08:55:03;;;;;;;0.30;0.30;;;5.30;99.90;;;;;;5023641;28;20226;-93
2024/01/04 08:57:30;;;;;;;0.30;0.30;;;5.30;99.90;;;;;;5031039;28;20250;-93
2024/01/04 08:59:56;;;;;;;0.20;0.20;;;5.30;99.90;;;;;;5016829;28;20199;-92
2024/01/04 09:02:22;;;;;;;0.43;0.43;;;5.30;99.90;;;;;;5057768;28;20417;-95
2024/01/04 09:04:48;;;;;;;0.30;0.30;;;5.30;99.90;;;;;;5023980;28;20235;-94
2024/01/04 09:07:14;;;;;;;2.00;1.03;;;5.40;99.90;;;;;;5013352;28;20234;-93
2024/01/04 09:09:40;;;;;;;0.20;0.20;;;5.40;99.90;;;;;;5022235;28;20306;-93
2024/01/04 09:12:09;;;;;;;0.40;0.30;;;5.50;99.90;;;;;;5040317;28;20290;-93
2024/01/04 09:14:35;;;;;;;0.30;0.30;;;5.70;99.90;;;;;;5057479;28;20186;-92
2024/01/04 09:17:01;;;;;;;0.50;0.50;;;5.80;99.90;;;;;;5025155;28;20230;-93
2024/01/04 09:19:27;;;;;;;0.30;0.30;;;5.90;99.90;;;;;;5023661;28;20218;-92
2024/01/04 09:21:53;;;;;;;0.40;0.40;;;6.00;99.90;;;;;;5016707;28;20272;-93
2024/01/04 09:24:23;;;;;;;0.30;0.30;;;5.90;99.90;;;;;;5020682;28;20306;-92
2024/01/04 09:26:49;;;;;;;0.20;0.20;;;6.00;99.90;;;;;;5031426;28;20203;-91
2024/01/04 09:29:17;;;;;;;0.40;0.40;;;6.00;99.90;;;;;;5023952;28;20193;-92
2024/01/04 09:31:44;;;;;;;0.40;0.40;;;6.00;99.90;;;;;;5056362;28;20226;-93
2024/01/04 09:34:10;;;;;;;0.20;0.20;;;6.10;99.90;;;;;;5022367;28;20214;-93
2024/01/04 09:36:36;;;;;;;0.20;0.20;;;6.20;99.90;;;;;;5023844;28;21536;-92
2024/01/04 09:39:04;;;;;;;0.20;0.20;;;6.20;99.90;;;;;;5015127;28;20756;-93
2024/01/04 09:41:32;;;;;;;0.30;0.30;;;6.40;99.90;;;;;;5030112;28;20241;-94
2024/01/04 09:44:06;;;;;;;0.40;0.40;;;6.50;99.90;;;;;;5022455;28;20219;-91
2024/01/04 09:46:36;;;;;;;0.20;0.20;;;6.50;99.90;;;;;;5020051;28;20246;-93
2024/01/04 09:49:03;;;;;;;0.33;0.33;;;6.50;99.90;;;;;;5054995;28;20565;-92
2024/01/04 09:51:35;;;;;;;0.40;0.40;;;6.50;99.90;;;;;;5023191;28;20260;-93
2024/01/04 09:54:04;;;;;;;0.20;0.20;;;6.60;99.90;;;;;;5055932;28;20175;-93
2024/01/04 09:56:32;;;;;;;0.20;0.20;;;6.60;99.90;;;;;;5013020;28;20195;-92
2024/01/04 09:58:59;;;;;;;0.20;0.20;;;6.60;99.90;;;;;;5021985;28;20537;-92
2024/01/04 10:01:30;;;;;;;0.20;0.20;;;6.50;99.90;;;;;;5055440;28;20226;-92
2024/01/04 10:04:00;;;;;;;0.43;0.43;;;6.60;99.90;;;;;;5021856;28;20222;-93
2024/01/04 10:06:33;;;;;;;1.97;0.77;;;6.70;99.90;;;;;;5021343;28;20245;-93
2024/01/04 10:09:18;;;;;;;0.10;0.10;;;6.70;99.90;;;;;;5022540;28;20185;-92
2024/01/04 10:12:07;;;;;;;1.03;0.40;;;6.80;99.90;;;;;;5023888;28;20217;-93
2024/01/04 10:14:34;;;;;;;0.20;0.20;;;6.80;99.90;;;;;;5004122;28;20253;-94
2024/01/04 10:17:01;;;;;;;0.30;0.30;;;6.80;99.90;;;;;;5049483;28;20207;-92
2024/01/04 10:19:28;;;;;;;0.33;0.33;;;6.80;99.90;;;;;;5022290;28;20711;-93
2024/01/04 10:21:58;;;;;;;0.30;0.30;;;6.60;99.90;;;;;;5012708;28;20218;-93
2024/01/04 10:24:25;;;;;;;0.20;0.20;;;6.50;99.90;;;;;;5023153;28;20347;-94
2024/01/04 10:26:57;;;;;;;1.27;0.87;;;6.60;99.90;;;;;;5012208;28;20765;-94
2024/01/04 10:29:26;;;;;;;1.93;1.17;;;6.60;99.90;;;;;;5038758;28;20199;-93
2024/01/04 10:32:13;;;;;;;0.30;0.30;;;6.70;99.90;;;;;;5011502;28;20215;-94
2024/01/04 10:34:39;;;;;;;0.20;0.20;;;6.70;99.90;;;;;;5054628;28;20214;-94
2024/01/04 10:37:17;;;;;;;0.30;0.30;;;6.60;99.90;;;;;;5022224;28;20214;-94
2024/01/04 10:39:55;;;;;;;0.30;0.30;;;6.60;99.90;;;;;;5016244;28;20280;-94
2024/01/04 10:42:24;;;;;;;0.20;0.20;;;6.60;99.90;;;;;;5055294;28;20219;-94
2024/01/04 10:44:54;;;;;;;0.20;0.20;;;6.50;99.90;;;;;;5054449;28;20206;-92
2024/01/04 10:47:20;;;;;;;0.30;0.30;;;6.50;99.90;;;;;;5055913;28;20252;-95
2024/01/04 10:49:49;;;;;;;0.50;0.50;;;6.50;99.90;;;;;;5031060;28;20219;-92
2024/01/04 10:52:16;;;;;;;0.53;0.40;;;6.60;99.90;;;;;;5022764;28;20931;-93
2024/01/04 10:54:43;;;;;;;0.40;0.40;;;6.50;99.90;;;;;;5011256;28;20226;-92
2024/01/04 10:57:10;;;;;;;0.20;0.20;;;6.50;99.90;;;;;;5021559;28;20214;-93
2024/01/04 10:59:37;;;;;;;0.30;0.30;;;6.60;99.90;;;;;;5024137;28;20180;-94
2024/01/04 11:02:03;;;;;;;0.30;0.30;;;6.50;99.90;;;;;;4998696;28;20242;-93
2024/01/04 11:04:30;;;;;;;0.20;0.20;;;6.60;99.90;;;;;;5037998;28;20223;-93
2024/01/04 11:06:57;;;;;;;0.50;0.50;;;6.60;99.90;;;;;;5025413;28;20738;-92
2024/01/04 11:09:24;;;;;;;0.20;0.20;;;6.50;99.90;;;;;;5040522;28;20226;-91
2024/01/04 11:11:54;;;;;;;0.50;0.50;;;6.50;99.90;;;;;;5040508;28;20193;-94
2024/01/04 11:14:24;;;;;;;0.20;0.20;;;6.40;99.90;;;;;;5041232;28;20191;-92
2024/01/04 11:17:19;;;;;;;0.10;0.10;;;6.30;99.90;;;;;;5032902;28;20245;-92
2024/01/04 11:20:20;;;;;;;0.20;0.20;;;6.40;99.90;;;;;;5024903;28;20269;-92
2024/01/04 11:23:22;;;;;;;0.50;0.50;;;6.50;99.90;;;;;;5018645;28;20218;-91
2024/01/04 11:26:15;;;;;;;0.20;0.20;;;6.50;99.90;;;;;;5000501;28;20226;-90
2024/01/04 11:28:42;;;;;;;1.17;1.07;;;6.40;99.90;;;;;;5048938;28;20225;-92
2024/01/04 11:31:09;;;;;;;0.20;0.20;;;6.40;99.90;;;;;;5024481;28;20219;-91
2024/01/04 11:33:40;;;;;;;0.20;0.20;;;6.40;99.90;;;;;;5015870;28;20645;-91
2024/01/04 11:36:08;;;;;;;0.10;0.10;;;6.40;99.90;;;;;;5014948;28;20187;-91
2024/01/04 11:38:34;;;;;;;0.53;0.53;;;6.40;99.90;;;;;;5014395;28;20639;-92
2024/01/04 11:41:01;;;;;;;0.30;0.30;;;6.40;99.90;;;;;;5055690;28;20550;-91
2024/01/04 11:43:37;;;;;;;0.17;0.17;;;6.40;99.90;;;;;;5022666;28;20232;-91
2024/01/04 11:46:21;;;;;;;0.43;0.20;;;6.40;99.90;;;;;;5030128;28;20234;-92
2024/01/04 11:48:53;;;;;;;0.40;0.40;;;6.60;99.90;;;;;;5026118;28;20234;-91
2024/01/04 11:51:30;;;;;;;9.03;1.03;;;6.50;99.90;;;;;;5057500;28;20688;-92
2024/01/04 11:53:56;;;;;;;0.20;0.20;;;6.60;99.90;;;;;;5040585;28;20179;-91
2024/01/04 11:56:22;;;;;;;0.30;0.30;;;6.60;99.90;;;;;;5023392;28;20796;-91
2024/01/04 11:58:48;;;;;;;0.20;0.20;;;6.60;99.90;;;;;;5013847;28;20250;-91
2024/01/04 12:01:24;;;;;;;0.20;0.20;;;6.70;99.90;;;;;;5022573;28;20349;-91
2024/01/04 12:03:54;;;;;;;0.20;0.20;;;6.60;99.90;;;;;;5022607;28;20601;-88
2024/01/04 12:06:23;;;;;;;0.20;0.20;;;6.70;99.90;;;;;;5023536;28;20238;-90
2024/01/04 12:08:49;;;;;;;0.20;0.20;;;6.70;99.90;;;;;;5056994;28;20202;-89
2024/01/04 12:11:19;;;;;;;0.20;0.20;;;6.70;99.90;;;;;;5024678;28;20286;-91
2024/01/04 12:13:45;;;;;;;0.30;0.30;;;6.60;99.90;;;;;;5015323;28;20218;-91
2024/01/04 12:16:11;;;;;;;0.20;0.20;;;6.60;99.90;;;;;;5049278;28;20321;-92
2024/01/04 12:18:37;;;;;;;0.40;0.40;;;6.60;99.90;;;;;;5038004;28;20226;-90
2024/01/04 12:21:07;;;;;;;0.20;0.20;;;6.60;99.90;;;;;;5013596;28;20191;-90
2024/01/04 12:23:36;;;;;;;0.50;0.50;;;6.50;99.90;;;;;;5028425;28;20182;-91
2024/01/04 12:26:04;;;;;;;0.30;0.30;;;6.70;99.90;;;;;;5040352;28;20230;-91
2024/01/04 12:28:30;;;;;;;0.20;0.20;;;6.70;99.90;;;;;;5056033;28;20228;-90
2024/01/04 12:30:55;;;;;;;0.63;0.57;;;6.70;99.90;;;;;;5023720;28;20215;-89
2024/01/04 12:33:21;;;;;;;0.20;0.20;;;6.60;99.90;;;;;;5023401;28;20283;-90
2024/01/04 12:35:56;;;;;;;0.30;0.30;;;6.70;99.90;;;;;;5030979;28;20195;-90
2024/01/04 12:38:24;;;;;;;0.20;0.20;;;6.70;99.90;;;;;;5022838;28;20272;-92
2024/01/04 12:40:50;;;;;;;0.60;0.40;;;6.80;99.90;;;;;;5023232;28;20666;-91
2024/01/04 12:43:20;;;;;;;0.20;0.20;;;6.70;99.90;;;;;;5003662;28;20749;-91
2024/01/04 12:45:46;;;;;;;0.30;0.30;;;6.60;99.90;;;;;;5003253;28;20301;-91
2024/01/04 12:48:12;;;;;;;0.87;0.87;;;6.50;99.90;;;;;;5004680;28;20269;-91
2024/01/04 12:50:38;;;;;;;0.20;0.20;;;6.60;99.90;;;;;;5019750;28;20563;-92
2024/01/04 12:53:05;;;;;;;0.53;0.53;;;6.60;99.90;;;;;;5019525;28;20274;-92
2024/01/04 12:55:34;;;;;;;0.30;0.30;;;6.60;99.90;;;;;;5032367;28;20245;-92
2024/01/04 12:57:59;;;;;;;0.20;0.20;;;6.60;99.90;;;;;;5037145;28;20225;-91